Time;durP1;ratioP1;P1;durP2;ratioP2;P2;SDS_P1;SDS_P2;PMS_P1;PMS_P2;Temp;Humidity;BMP_temperature;BMP_pressure;BME280_temperature;BME280_humidity;BME280_pressure;Samples;Min_cycle;Max_cycle;Signal;HPM_P1;HPM_P2
2021/09/03 00:02:11;;;;;;;17.00;10.52;;;18.00;99.90;;;;;;5056141;28;20314;-76
2021/09/03 00:04:38;;;;;;;18.55;10.20;;;18.00;99.90;;;;;;5055916;28;20238;-76
2021/09/03 00:07:06;;;;;;;16.42;10.20;;;18.10;99.90;;;;;;5048917;28;20287;-76
2021/09/03 00:09:33;;;;;;;14.73;10.85;;;18.10;99.90;;;;;;5054346;28;20202;-76
2021/09/03 00:12:00;;;;;;;15.52;9.90;;;18.10;99.90;;;;;;5053295;28;20201;-76
2021/09/03 00:14:27;;;;;;;19.30;11.20;;;18.20;99.90;;;;;;5055187;28;20220;-76
2021/09/03 00:16:54;;;;;;;24.52;10.13;;;18.20;99.90;;;;;;5050643;28;20208;-76
2021/09/03 00:19:21;;;;;;;18.30;10.32;;;18.20;99.90;;;;;;5058868;28;20208;-76
2021/09/03 00:21:48;;;;;;;14.65;9.57;;;18.20;99.90;;;;;;5047840;28;20210;-76
2021/09/03 00:24:16;;;;;;;17.73;10.88;;;18.20;99.90;;;;;;5048413;28;20206;-76
2021/09/03 00:26:43;;;;;;;13.27;10.45;;;18.20;99.90;;;;;;5060785;28;20230;-76
2021/09/03 00:29:10;;;;;;;19.58;10.00;;;18.20;99.90;;;;;;5061382;28;20246;-76
2021/09/03 00:31:37;;;;;;;15.68;10.60;;;18.20;99.90;;;;;;5053849;28;20204;-76
2021/09/03 00:34:04;;;;;;;16.13;9.98;;;18.10;99.90;;;;;;5049047;28;20196;-76
2021/09/03 00:36:31;;;;;;;16.17;10.23;;;18.10;99.90;;;;;;5058340;28;20204;-76
2021/09/03 00:38:58;;;;;;;15.40;10.27;;;18.10;99.90;;;;;;5061592;28;20238;-76
2021/09/03 00:41:26;;;;;;;17.63;10.60;;;18.00;99.90;;;;;;5055978;28;20204;-76
2021/09/03 00:43:53;;;;;;;13.63;9.70;;;18.00;99.90;;;;;;5050664;28;20246;-76
2021/09/03 00:46:20;;;;;;;16.85;10.35;;;17.90;99.90;;;;;;5052205;28;20707;-76
2021/09/03 00:48:47;;;;;;;15.25;9.70;;;17.80;99.90;;;;;;5065207;28;20284;-76
2021/09/03 00:51:14;;;;;;;12.50;9.07;;;17.80;99.90;;;;;;5052663;28;20226;-76
2021/09/03 00:53:41;;;;;;;17.23;9.23;;;17.80;99.90;;;;;;5058628;28;20210;-76
2021/09/03 00:56:08;;;;;;;18.05;11.18;;;17.80;99.90;;;;;;5054719;28;20205;-76
2021/09/03 00:58:36;;;;;;;19.15;11.40;;;17.70;99.90;;;;;;5054984;28;20200;-76
2021/09/03 01:01:04;;;;;;;18.42;11.15;;;17.60;99.90;;;;;;5055654;28;20209;-77
2021/09/03 01:03:31;;;;;;;12.48;9.52;;;17.60;99.90;;;;;;5058154;28;20482;-76
2021/09/03 01:06:02;;;;;;;13.13;10.10;;;17.50;99.90;;;;;;5047816;28;20207;-76
2021/09/03 01:08:29;;;;;;;15.80;10.25;;;17.50;99.90;;;;;;5051554;28;20216;-77
2021/09/03 01:10:56;;;;;;;13.82;10.10;;;17.40;99.90;;;;;;5053472;28;20204;-76
2021/09/03 01:13:23;;;;;;;17.73;10.70;;;17.30;99.90;;;;;;5056014;28;20199;-76
2021/09/03 01:15:51;;;;;;;16.27;10.07;;;17.30;99.90;;;;;;5047677;28;20200;-76
2021/09/03 01:18:18;;;;;;;13.13;9.93;;;17.20;99.90;;;;;;5050432;28;20252;-76
2021/09/03 01:20:46;;;;;;;16.27;10.45;;;17.20;99.90;;;;;;5049854;28;20207;-76
2021/09/03 01:23:14;;;;;;;16.98;10.65;;;17.10;99.90;;;;;;5047842;28;20206;-77
2021/09/03 01:25:41;;;;;;;20.17;10.18;;;17.10;99.90;;;;;;5047506;28;20270;-76
2021/09/03 01:28:09;;;;;;;11.38;8.70;;;17.10;99.90;;;;;;5058138;28;20272;-76
2021/09/03 01:30:36;;;;;;;11.98;9.32;;;17.00;99.90;;;;;;5053838;28;20219;-76
2021/09/03 01:33:03;;;;;;;13.02;9.80;;;17.00;99.90;;;;;;5056283;28;20200;-75
2021/09/03 01:35:30;;;;;;;14.98;9.98;;;17.00;99.90;;;;;;5046924;28;20273;-76
2021/09/03 01:37:57;;;;;;;16.20;9.50;;;16.90;99.90;;;;;;5053339;28;20212;-75
2021/09/03 01:40:25;;;;;;;16.52;9.23;;;16.90;99.90;;;;;;5052578;28;20201;-76
2021/09/03 01:42:52;;;;;;;16.95;9.75;;;16.90;99.90;;;;;;5054465;28;20234;-75
2021/09/03 01:45:19;;;;;;;14.10;8.80;;;16.80;99.90;;;;;;5056933;28;20252;-76
2021/09/03 01:47:46;;;;;;;16.48;10.23;;;16.70;99.90;;;;;;5059621;28;20222;-76
2021/09/03 01:50:13;;;;;;;15.93;10.20;;;16.70;99.90;;;;;;5053622;28;20200;-76
2021/09/03 01:52:40;;;;;;;12.85;10.13;;;16.50;99.90;;;;;;5052318;28;20619;-76
2021/09/03 01:55:08;;;;;;;14.43;10.07;;;16.50;99.90;;;;;;5052872;28;20254;-76
2021/09/03 01:57:36;;;;;;;24.02;10.55;;;16.60;99.90;;;;;;5053582;28;20208;-76
2021/09/03 02:00:03;;;;;;;19.23;10.40;;;16.50;99.90;;;;;;5050112;28;20258;-76
2021/09/03 02:02:30;;;;;;;15.00;10.63;;;16.50;99.90;;;;;;5046671;28;20233;-76
2021/09/03 02:04:57;;;;;;;11.68;8.93;;;16.40;99.90;;;;;;5057433;28;20236;-76
2021/09/03 02:07:24;;;;;;;14.23;9.23;;;16.40;99.90;;;;;;5053100;28;20195;-76
2021/09/03 02:09:51;;;;;;;18.52;10.50;;;16.40;99.90;;;;;;5051029;28;20267;-76
2021/09/03 02:12:18;;;;;;;13.02;10.20;;;16.30;99.90;;;;;;5047979;28;20204;-75
2021/09/03 02:14:46;;;;;;;14.98;10.60;;;16.30;99.90;;;;;;5055431;28;20211;-76
2021/09/03 02:17:13;;;;;;;14.98;10.07;;;16.30;99.90;;;;;;5057912;28;20212;-75
2021/09/03 02:19:40;;;;;;;16.55;10.02;;;16.20;99.90;;;;;;5047102;28;20259;-76
2021/09/03 02:22:07;;;;;;;15.05;9.40;;;16.20;99.90;;;;;;5046303;28;20208;-76
2021/09/03 02:24:34;;;;;;;14.20;9.70;;;16.20;99.90;;;;;;5052010;28;20200;-76
2021/09/03 02:27:01;;;;;;;14.55;9.07;;;16.10;99.90;;;;;;5056621;28;20242;-76
2021/09/03 02:29:28;;;;;;;14.98;10.02;;;16.00;99.90;;;;;;5057665;28;20671;-76
2021/09/03 02:31:57;;;;;;;14.32;9.05;;;16.00;99.90;;;;;;5052245;28;20199;-75
2021/09/03 02:34:24;;;;;;;14.65;9.60;;;16.00;99.90;;;;;;5052695;28;20640;-76
2021/09/03 02:36:51;;;;;;;13.20;9.20;;;15.90;99.90;;;;;;5063769;28;20614;-76
2021/09/03 02:39:18;;;;;;;11.80;9.00;;;15.90;99.90;;;;;;5054936;28;20193;-76
2021/09/03 02:41:45;;;;;;;13.68;9.85;;;15.90;99.90;;;;;;5059530;28;20204;-76
2021/09/03 02:44:12;;;;;;;18.42;10.23;;;15.90;99.90;;;;;;5053474;28;20265;-76
2021/09/03 02:46:39;;;;;;;16.58;10.02;;;15.80;99.90;;;;;;5057066;28;20211;-76
2021/09/03 02:49:07;;;;;;;14.25;9.57;;;15.80;99.90;;;;;;5060589;28;20284;-76
2021/09/03 02:51:34;;;;;;;16.23;9.50;;;15.80;99.90;;;;;;5050353;28;20209;-76
2021/09/03 02:54:02;;;;;;;22.90;10.20;;;15.70;99.90;;;;;;5050739;28;20205;-76
2021/09/03 02:56:29;;;;;;;15.48;10.63;;;15.70;99.90;;;;;;5050523;28;20232;-76
2021/09/03 02:58:56;;;;;;;19.08;10.98;;;15.70;99.90;;;;;;5057371;28;20662;-76
2021/09/03 03:01:23;;;;;;;14.18;9.70;;;15.70;99.90;;;;;;5054105;28;20203;-76
2021/09/03 03:03:49;;;;;;;12.25;9.48;;;15.70;99.90;;;;;;5061217;28;20225;-76
2021/09/03 03:06:18;;;;;;;14.85;10.32;;;15.70;99.90;;;;;;5049181;28;20201;-76
2021/09/03 03:08:45;;;;;;;20.60;9.80;;;15.60;99.90;;;;;;5054956;28;20627;-76
2021/09/03 03:11:12;;;;;;;14.10;9.90;;;15.60;99.90;;;;;;5051435;28;20201;-76
2021/09/03 03:13:46;;;;;;;17.85;10.57;;;15.60;99.90;;;;;;5050270;28;20232;-77
2021/09/03 03:16:13;;;;;;;26.63;10.23;;;15.50;99.90;;;;;;5055242;28;20212;-76
2021/09/03 03:18:40;;;;;;;17.85;10.60;;;15.50;99.90;;;;;;5052890;28;20267;-76
2021/09/03 03:21:07;;;;;;;15.35;10.55;;;15.50;99.90;;;;;;5057369;28;20254;-76
2021/09/03 03:23:35;;;;;;;16.80;10.07;;;15.50;99.90;;;;;;5064895;28;20199;-76
2021/09/03 03:26:03;;;;;;;12.65;9.75;;;15.50;99.90;;;;;;5051206;28;20211;-76
2021/09/03 03:28:30;;;;;;;16.80;10.18;;;15.50;99.90;;;;;;5060650;28;20315;-76
2021/09/03 03:30:57;;;;;;;14.75;10.20;;;15.50;99.90;;;;;;5057046;28;20208;-76
2021/09/03 03:33:24;;;;;;;13.27;9.80;;;15.40;99.90;;;;;;5054486;28;20282;-76
2021/09/03 03:35:50;;;;;;;13.35;9.13;;;15.50;99.90;;;;;;5059910;28;20204;-76
2021/09/03 03:38:17;;;;;;;13.90;9.63;;;15.40;99.90;;;;;;5056064;28;20202;-76
2021/09/03 03:40:46;;;;;;;15.77;11.25;;;15.30;99.90;;;;;;5065782;28;20281;-76
2021/09/03 03:43:13;;;;;;;17.77;12.63;;;15.30;99.90;;;;;;5052417;28;20208;-75
2021/09/03 03:45:39;;;;;;;19.38;12.15;;;15.30;99.90;;;;;;5064709;28;20207;-75
2021/09/03 03:48:07;;;;;;;19.77;10.68;;;15.20;99.90;;;;;;5063699;28;20204;-75
2021/09/03 03:50:34;;;;;;;20.83;11.10;;;15.20;99.90;;;;;;5060099;28;20229;-76
2021/09/03 03:53:01;;;;;;;14.75;10.10;;;15.20;99.90;;;;;;5056558;28;20243;-76
2021/09/03 03:55:28;;;;;;;13.45;10.85;;;15.20;99.90;;;;;;5058165;28;20218;-75
2021/09/03 03:57:56;;;;;;;16.00;10.48;;;15.20;99.90;;;;;;5055330;28;20198;-75
2021/09/03 04:00:23;;;;;;;14.50;10.57;;;15.20;99.90;;;;;;5049892;28;20211;-75
2021/09/03 04:02:50;;;;;;;20.70;11.13;;;15.10;99.90;;;;;;5052229;28;20203;-75
2021/09/03 04:05:17;;;;;;;14.20;10.02;;;15.10;99.90;;;;;;5055301;28;20200;-75
2021/09/03 04:07:44;;;;;;;16.20;9.77;;;15.10;99.90;;;;;;5055495;28;20275;-75
2021/09/03 04:10:11;;;;;;;14.63;10.50;;;15.10;99.90;;;;;;5056068;28;20239;-75
2021/09/03 04:12:38;;;;;;;17.27;11.35;;;15.10;99.90;;;;;;5053238;28;20212;-75
2021/09/03 04:15:08;;;;;;;14.52;9.52;;;15.10;99.90;;;;;;5048659;28;20203;-75
2021/09/03 04:17:34;;;;;;;17.92;10.23;;;15.10;99.90;;;;;;5060361;28;20200;-76
2021/09/03 04:20:01;;;;;;;16.17;9.85;;;15.00;99.90;;;;;;5053489;28;20667;-75
2021/09/03 04:22:28;;;;;;;18.38;11.13;;;15.00;99.90;;;;;;5056293;28;20208;-75
2021/09/03 04:24:55;;;;;;;15.38;9.70;;;14.90;99.90;;;;;;5057837;28;20220;-75
2021/09/03 04:27:22;;;;;;;15.93;9.98;;;14.90;99.90;;;;;;5059099;28;20540;-75
2021/09/03 04:29:49;;;;;;;15.40;10.75;;;14.90;99.90;;;;;;5054835;28;20223;-75
2021/09/03 04:32:17;;;;;;;13.95;9.93;;;14.90;99.90;;;;;;5048836;28;20251;-76
2021/09/03 04:34:44;;;;;;;14.80;10.35;;;14.90;99.90;;;;;;5061325;28;20200;-75
2021/09/03 04:37:12;;;;;;;15.98;10.88;;;14.80;99.90;;;;;;5060342;28;20233;-75
2021/09/03 04:39:39;;;;;;;20.33;11.55;;;14.80;99.90;;;;;;5049550;28;20219;-76
2021/09/03 04:42:06;;;;;;;16.00;10.52;;;14.80;99.90;;;;;;5049035;28;20560;-76
2021/09/03 04:44:34;;;;;;;17.27;11.00;;;14.80;99.90;;;;;;5056134;28;20211;-75
2021/09/03 04:47:01;;;;;;;17.55;11.00;;;14.80;99.90;;;;;;5051684;28;20268;-76
2021/09/03 04:49:29;;;;;;;18.75;9.93;;;14.80;99.90;;;;;;5053617;28;20231;-75
2021/09/03 04:51:56;;;;;;;15.60;10.75;;;14.70;99.90;;;;;;5058209;28;20211;-75
2021/09/03 04:54:23;;;;;;;14.30;9.70;;;14.70;99.90;;;;;;5052778;28;20234;-75
2021/09/03 04:56:50;;;;;;;14.63;10.18;;;14.70;99.90;;;;;;5049050;28;20262;-76
2021/09/03 04:59:17;;;;;;;16.73;11.40;;;14.70;99.90;;;;;;5049186;28;20207;-75
2021/09/03 05:01:44;;;;;;;15.75;10.27;;;14.70;99.90;;;;;;5055209;28;20226;-76
2021/09/03 05:04:11;;;;;;;22.83;11.68;;;14.70;99.90;;;;;;5058606;28;20230;-75
2021/09/03 05:06:39;;;;;;;17.63;10.20;;;14.70;99.90;;;;;;5058438;28;20273;-75
2021/09/03 05:09:06;;;;;;;16.63;11.25;;;14.70;99.90;;;;;;5051101;28;20228;-75
2021/09/03 05:11:33;;;;;;;15.23;10.55;;;14.60;99.90;;;;;;5047679;28;20611;-75
2021/09/03 05:14:00;;;;;;;14.95;10.27;;;14.60;99.90;;;;;;5047720;28;20204;-75
2021/09/03 05:16:27;;;;;;;15.50;10.32;;;14.60;99.90;;;;;;5053662;28;20199;-75
2021/09/03 05:18:54;;;;;;;12.90;9.77;;;14.60;99.90;;;;;;5048047;28;20210;-76
2021/09/03 05:21:21;;;;;;;13.85;10.05;;;14.60;99.90;;;;;;5061842;28;20201;-76
2021/09/03 05:23:49;;;;;;;15.10;9.85;;;14.50;99.90;;;;;;5060047;28;20317;-75
2021/09/03 05:26:16;;;;;;;17.80;10.05;;;14.60;99.90;;;;;;5051258;28;20719;-76
2021/09/03 05:28:43;;;;;;;15.68;10.95;;;14.60;99.90;;;;;;5053340;28;20278;-75
2021/09/03 05:31:10;;;;;;;14.75;9.60;;;14.60;99.90;;;;;;5048039;28;20211;-75
2021/09/03 05:33:37;;;;;;;19.10;11.38;;;14.60;99.90;;;;;;5055783;28;20262;-75
2021/09/03 05:36:05;;;;;;;17.63;10.07;;;14.60;99.90;;;;;;5062103;28;20204;-76
2021/09/03 05:38:31;;;;;;;14.48;10.02;;;14.70;99.90;;;;;;5052481;28;20213;-76
2021/09/03 05:41:00;;;;;;;15.77;9.95;;;14.70;99.90;;;;;;5049667;28;20202;-76
2021/09/03 05:43:27;;;;;;;15.32;10.43;;;14.70;99.90;;;;;;5058266;28;20200;-77
2021/09/03 05:45:54;;;;;;;18.52;11.70;;;14.70;99.90;;;;;;5053430;28;20211;-76
2021/09/03 05:48:21;;;;;;;14.00;10.23;;;14.70;99.90;;;;;;5047294;28;20220;-76
2021/09/03 05:50:49;;;;;;;14.85;10.70;;;14.70;99.90;;;;;;5053639;28;20231;-76
2021/09/03 05:53:16;;;;;;;18.35;12.32;;;14.80;99.90;;;;;;5058330;28;20212;-76
2021/09/03 05:55:43;;;;;;;16.23;11.15;;;14.80;99.90;;;;;;5058368;28;20197;-76
2021/09/03 05:58:11;;;;;;;15.43;10.77;;;14.90;99.90;;;;;;5051006;28;20194;-76
2021/09/03 06:00:38;;;;;;;21.70;14.98;;;14.90;99.90;;;;;;5053858;28;20241;-76
2021/09/03 06:03:05;;;;;;;19.65;11.55;;;15.00;99.90;;;;;;5058691;28;20223;-76
2021/09/03 06:05:32;;;;;;;16.27;11.10;;;15.00;99.90;;;;;;5060986;28;20196;-76
2021/09/03 06:07:59;;;;;;;19.30;12.05;;;15.10;99.90;;;;;;5052345;28;20202;-76
2021/09/03 06:10:26;;;;;;;18.75;11.98;;;15.10;99.90;;;;;;5055034;28;20225;-76
2021/09/03 06:12:53;;;;;;;24.23;11.18;;;15.20;99.90;;;;;;5053287;28;20262;-76
2021/09/03 06:15:21;;;;;;;19.13;11.93;;;15.20;99.90;;;;;;5057549;28;20204;-76
2021/09/03 06:17:48;;;;;;;18.17;11.10;;;15.20;99.90;;;;;;5058756;28;20214;-76
2021/09/03 06:20:15;;;;;;;17.52;10.98;;;15.30;99.90;;;;;;5059825;28;20636;-76
2021/09/03 06:22:42;;;;;;;16.50;12.20;;;15.30;99.90;;;;;;5068042;28;20211;-76
2021/09/03 06:25:11;;;;;;;18.23;11.18;;;15.40;99.90;;;;;;5056449;28;20643;-76
2021/09/03 06:27:38;;;;;;;21.30;11.57;;;15.40;99.90;;;;;;5060059;28;20204;-76
2021/09/03 06:30:06;;;;;;;18.15;11.43;;;15.40;99.90;;;;;;5055504;28;20263;-76
2021/09/03 06:32:35;;;;;;;16.38;11.05;;;15.50;99.90;;;;;;5061401;28;20203;-76
2021/09/03 06:35:05;;;;;;;16.65;10.95;;;15.50;99.90;;;;;;5054862;28;20230;-76
2021/09/03 06:37:32;;;;;;;20.88;11.65;;;15.60;99.90;;;;;;5058285;28;20203;-76
2021/09/03 06:40:00;;;;;;;19.08;12.05;;;15.70;99.90;;;;;;5061986;28;20203;-75
2021/09/03 06:42:30;;;;;;;21.75;11.35;;;15.80;99.90;;;;;;5058735;28;20226;-75
2021/09/03 06:45:00;;;;;;;17.00;10.77;;;15.90;99.90;;;;;;5058228;28;20203;-76
2021/09/03 06:47:27;;;;;;;18.45;11.50;;;15.90;99.90;;;;;;5059029;28;20204;-75
2021/09/03 06:49:56;;;;;;;17.52;11.07;;;16.00;99.90;;;;;;5050576;28;20249;-75
2021/09/03 06:52:29;;;;;;;21.20;11.10;;;16.10;99.90;;;;;;5054846;28;20611;-75
2021/09/03 06:54:57;;;;;;;19.38;10.90;;;16.10;99.90;;;;;;5049277;28;20209;-75
2021/09/03 06:57:24;;;;;;;15.77;10.85;;;16.20;99.90;;;;;;5055663;28;20211;-75
2021/09/03 06:59:51;;;;;;;17.70;11.15;;;16.30;99.90;;;;;;5056962;28;20293;-75
2021/09/03 07:02:19;;;;;;;15.55;11.35;;;16.40;99.90;;;;;;5058867;28;20459;-75
2021/09/03 07:04:46;;;;;;;17.05;10.32;;;16.50;99.90;;;;;;5058438;28;20317;-76
2021/09/03 07:07:14;;;;;;;15.00;10.20;;;16.60;99.90;;;;;;5059445;28;20203;-75
2021/09/03 07:09:41;;;;;;;18.92;10.75;;;16.80;99.90;;;;;;5056037;28;20259;-75
2021/09/03 07:12:09;;;;;;;17.63;10.20;;;16.90;99.90;;;;;;5058872;28;20224;-75
2021/09/03 07:14:36;;;;;;;18.73;9.80;;;17.10;99.90;;;;;;5061930;28;20264;-76
2021/09/03 07:17:06;;;;;;;16.60;10.07;;;17.40;99.90;;;;;;5062687;28;20209;-76
2021/09/03 07:19:34;;;;;;;14.57;9.05;;;18.00;99.90;;;;;;5055839;28;20199;-75
2021/09/03 07:22:01;;;;;;;15.68;10.30;;;18.50;99.90;;;;;;5067054;28;20259;-77
2021/09/03 07:24:30;;;;;;;15.52;9.55;;;18.90;99.90;;;;;;5054161;28;20206;-76
2021/09/03 07:26:57;;;;;;;9.50;8.10;;;19.40;99.90;;;;;;5057074;28;20255;-75
2021/09/03 07:29:25;;;;;;;12.65;8.27;;;19.90;99.90;;;;;;5053008;28;20232;-76
2021/09/03 07:31:53;;;;;;;12.18;8.75;;;20.40;99.90;;;;;;5053426;28;20244;-76
2021/09/03 07:34:21;;;;;;;10.40;8.10;;;20.90;99.90;;;;;;5065609;28;20282;-76
2021/09/03 07:36:48;;;;;;;14.07;8.63;;;21.30;99.90;;;;;;5058163;28;20230;-74
2021/09/03 07:39:18;;;;;;;16.50;9.48;;;21.70;99.90;;;;;;5055300;28;20226;-73
2021/09/03 07:41:47;;;;;;;11.68;8.52;;;22.20;99.90;;;;;;5050773;28;20267;-75
2021/09/03 07:44:14;;;;;;;10.13;7.32;;;22.50;99.90;;;;;;5058853;28;20211;-75
2021/09/03 07:46:43;;;;;;;9.20;7.15;;;22.80;99.90;;;;;;5060939;28;20203;-75
2021/09/03 07:49:10;;;;;;;9.73;8.15;;;23.20;99.90;;;;;;5061263;28;20199;-75
2021/09/03 07:51:37;;;;;;;10.10;6.68;;;23.50;99.90;;;;;;5055412;28;20239;-75
2021/09/03 07:54:04;;;;;;;13.45;7.65;;;23.80;99.90;;;;;;5057701;28;20203;-75
2021/09/03 07:56:31;;;;;;;8.05;6.47;;;24.10;99.90;;;;;;5059898;28;20256;-75
2021/09/03 07:58:59;;;;;;;10.73;8.65;;;24.40;99.90;;;;;;5058909;28;20200;-75
2021/09/03 08:01:26;;;;;;;10.45;7.40;;;24.60;99.90;;;;;;5047683;28;20469;-75
2021/09/03 08:03:53;;;;;;;16.52;6.60;;;24.90;99.90;;;;;;5065091;28;20237;-74
2021/09/03 08:06:20;;;;;;;13.13;6.13;;;25.10;99.90;;;;;;5054835;28;20229;-75
2021/09/03 08:08:47;;;;;;;7.70;6.85;;;25.30;99.90;;;;;;5053254;28;20229;-75
2021/09/03 08:11:14;;;;;;;12.02;6.90;;;25.60;99.90;;;;;;5054077;28;20251;-74
2021/09/03 08:13:41;;;;;;;8.38;6.28;;;25.60;99.90;;;;;;5060462;28;20234;-73
2021/09/03 08:16:09;;;;;;;7.57;6.18;;;25.80;99.90;;;;;;5054272;28;20202;-74
2021/09/03 08:18:36;;;;;;;10.18;6.38;;;25.90;99.90;;;;;;5059145;28;20202;-74
2021/09/03 08:21:03;;;;;;;13.85;6.82;;;26.20;99.90;;;;;;5053233;28;20564;-74
2021/09/03 08:23:33;;;;;;;8.02;6.88;;;26.50;99.90;;;;;;5060137;28;20515;-75
2021/09/03 08:26:00;;;;;;;7.88;6.40;;;26.70;99.90;;;;;;5069985;28;20206;-75
2021/09/03 08:28:27;;;;;;;11.82;6.43;;;27.00;99.90;;;;;;5061337;28;20203;-75
2021/09/03 08:30:54;;;;;;;9.77;6.90;;;27.20;99.90;;;;;;5055500;28;20233;-75
2021/09/03 08:33:22;;;;;;;9.38;6.80;;;27.40;99.90;;;;;;5051410;28;20209;-74
2021/09/03 08:35:49;;;;;;;10.23;6.13;;;27.70;99.90;;;;;;5048996;28;20210;-74
2021/09/03 08:38:16;;;;;;;6.75;5.97;;;27.90;99.90;;;;;;5058690;28;20205;-75
2021/09/03 08:40:43;;;;;;;12.60;7.00;;;27.90;99.90;;;;;;5066604;28;20219;-74
2021/09/03 08:43:10;;;;;;;10.07;6.78;;;28.20;99.90;;;;;;5059007;28;20207;-75
2021/09/03 08:45:38;;;;;;;7.60;5.95;;;28.40;99.90;;;;;;5055304;28;20207;-75
2021/09/03 08:48:05;;;;;;;10.20;6.10;;;28.60;99.90;;;;;;5051460;28;20206;-75
2021/09/03 08:50:34;;;;;;;10.07;5.82;;;28.70;99.90;;;;;;5067273;28;20225;-75
2021/09/03 08:53:01;;;;;;;7.85;6.07;;;28.80;99.90;;;;;;5072759;28;20229;-75
2021/09/03 08:55:28;;;;;;;9.15;6.22;;;28.90;99.90;;;;;;5063711;28;20230;-76
2021/09/03 08:57:57;;;;;;;8.52;5.32;;;29.20;99.90;;;;;;5059607;28;20214;-75
2021/09/03 09:00:26;;;;;;;14.57;7.28;;;29.50;99.90;;;;;;5052698;28;20231;-75
2021/09/03 09:02:58;;;;;;;12.38;6.10;;;29.80;99.90;;;;;;5047817;28;20231;-74
2021/09/03 09:05:49;;;;;;;10.27;6.22;;;30.10;99.90;;;;;;5054817;28;20238;-76
2021/09/03 09:08:19;;;;;;;9.85;6.60;;;30.30;99.90;;;;;;5058565;28;20212;-75
2021/09/03 09:10:47;;;;;;;6.90;5.85;;;30.50;99.90;;;;;;5061881;28;20302;-75
2021/09/03 09:13:16;;;;;;;10.95;7.68;;;30.50;99.90;;;;;;5059627;28;20557;-75
2021/09/03 09:15:43;;;;;;;15.05;9.48;;;30.50;99.90;;;;;;5053226;28;20211;-75
2021/09/03 09:18:10;;;;;;;11.93;7.50;;;30.40;99.90;;;;;;5052244;28;20200;-75
2021/09/03 09:20:37;;;;;;;11.25;7.20;;;30.00;99.90;;;;;;5054079;28;20229;-75
2021/09/03 09:23:07;;;;;;;9.60;6.70;;;30.00;99.90;;;;;;5056678;28;20200;-75
2021/09/03 09:25:36;;;;;;;11.77;6.82;;;30.20;99.90;;;;;;5065111;28;20278;-75
2021/09/03 09:28:17;;;;;;;10.05;6.55;;;30.30;99.90;;;;;;5057572;28;20269;-75
2021/09/03 09:30:45;;;;;;;7.72;6.32;;;30.70;99.90;;;;;;5046740;28;20247;-75
2021/09/03 09:33:14;;;;;;;8.00;6.18;;;30.90;99.90;;;;;;5047783;28;20216;-75
2021/09/03 09:35:44;;;;;;;14.35;6.15;;;31.20;99.90;;;;;;5047037;28;20208;-75
2021/09/03 09:38:13;;;;;;;7.00;5.72;;;31.30;99.90;;;;;;5052461;28;20203;-75
2021/09/03 09:40:48;;;;;;;8.65;5.53;;;31.60;99.90;;;;;;5047794;28;20201;-75
2021/09/03 09:43:40;;;;;;;8.77;5.32;;;31.70;99.90;;;;;;5058587;28;20204;-75
2021/09/03 09:46:11;;;;;;;8.20;6.60;;;32.10;99.90;;;;;;5033054;28;20230;-75
2021/09/03 09:48:57;;;;;;;6.72;5.13;;;32.40;99.90;;;;;;5050851;28;20217;-75
2021/09/03 09:51:26;;;;;;;11.80;5.85;;;32.50;99.90;;;;;;5050278;28;20221;-75
2021/09/03 09:53:56;;;;;;;10.38;5.57;;;32.60;98.80;;;;;;5057528;28;20212;-77
2021/09/03 09:56:23;;;;;;;8.35;6.05;;;32.60;99.10;;;;;;5061943;28;20196;-77
2021/09/03 09:58:52;;;;;;;7.72;5.75;;;32.90;99.60;;;;;;5047429;28;20722;-76
2021/09/03 10:01:19;;;;;;;6.75;5.25;;;33.20;99.10;;;;;;5046790;28;20225;-77
2021/09/03 10:08:21;;;;;;;8.30;6.40;;;33.80;98.60;;;;;;5082177;28;20302;-76
2021/09/03 10:10:56;;;;;;;9.27;6.93;;;33.70;97.10;;;;;;5082521;28;20205;-76
2021/09/03 10:13:24;;;;;;;9.00;7.00;;;33.30;96.70;;;;;;5083148;28;20192;-76
2021/09/03 10:15:51;;;;;;;13.00;7.00;;;33.20;97.00;;;;;;5082386;28;20212;-76
2021/09/03 10:18:19;;;;;;;9.50;5.78;;;33.20;97.20;;;;;;5083211;28;20233;-76
2021/09/03 10:20:47;;;;;;;9.32;5.38;;;33.30;97.40;;;;;;5082034;28;20208;-76
2021/09/03 10:23:51;;;;;;;11.48;6.60;;;33.00;96.70;;;;;;5083114;28;20238;-76
2021/09/03 10:26:22;;;;;;;7.25;5.47;;;32.80;95.40;;;;;;5087807;28;20296;-76
2021/09/03 10:28:49;;;;;;;10.00;5.90;;;33.00;95.20;;;;;;5091385;28;20244;-76
2021/09/03 10:31:19;;;;;;;9.82;6.20;;;33.00;95.30;;;;;;5085546;28;20805;-76
2021/09/03 10:33:47;;;;;;;7.00;5.65;;;32.90;94.40;;;;;;5088278;28;20236;-76
2021/09/03 10:36:34;;;;;;;8.30;5.65;;;33.00;95.10;;;;;;5082231;28;20298;-76
2021/09/03 10:39:23;;;;;;;11.77;6.55;;;33.00;95.20;;;;;;5088112;28;20230;-77
2021/09/03 10:41:52;;;;;;;8.10;5.78;;;33.00;94.40;;;;;;5083350;28;20261;-76
2021/09/03 10:44:19;;;;;;;8.25;5.68;;;32.90;94.10;;;;;;5082562;28;20235;-76
2021/09/03 10:46:47;;;;;;;7.88;4.88;;;33.10;94.40;;;;;;5083123;28;20204;-76
2021/09/03 10:49:17;;;;;;;8.02;5.75;;;33.20;94.30;;;;;;5086426;28;20230;-76
2021/09/03 10:51:51;;;;;;;6.65;5.93;;;33.30;93.60;;;;;;5081615;28;20246;-76
2021/09/03 10:54:19;;;;;;;7.57;6.05;;;33.10;94.80;;;;;;5082550;28;20204;-76
2021/09/03 10:56:57;;;;;;;6.75;5.47;;;32.90;94.00;;;;;;5088679;28;20205;-76
2021/09/03 10:59:24;;;;;;;6.22;5.35;;;32.80;93.60;;;;;;5085040;28;20199;-76
2021/09/03 11:01:57;;;;;;;5.75;5.00;;;32.40;94.00;;;;;;5081373;28;20233;-76
2021/09/03 11:04:25;;;;;;;7.03;5.53;;;32.30;93.70;;;;;;5081751;28;20305;-76
2021/09/03 11:07:13;;;;;;;8.07;5.70;;;32.30;93.60;;;;;;5081634;28;20209;-76
2021/09/03 11:09:46;;;;;;;6.07;5.47;;;32.00;94.00;;;;;;5082480;28;20936;-76
2021/09/03 11:12:16;;;;;;;7.35;6.20;;;31.40;93.40;;;;;;5081847;28;20528;-76
2021/09/03 11:14:44;;;;;;;8.50;5.28;;;30.90;93.70;;;;;;5077035;28;20215;-76
2021/09/03 11:17:12;;;;;;;13.15;5.70;;;30.30;93.80;;;;;;5068085;28;20227;-76
2021/09/03 11:19:41;;;;;;;7.43;5.68;;;29.90;94.60;;;;;;5073155;28;20208;-76
2021/09/03 11:22:09;;;;;;;7.53;5.57;;;29.70;95.70;;;;;;5071345;28;20234;-76
2021/09/03 11:24:38;;;;;;;7.03;5.50;;;29.30;94.90;;;;;;5069019;28;20252;-76
2021/09/03 11:27:07;;;;;;;8.88;5.95;;;28.90;96.30;;;;;;5068534;28;20218;-76
2021/09/03 11:29:42;;;;;;;6.78;4.97;;;28.30;96.70;;;;;;5068542;28;20290;-76
2021/09/03 11:32:11;;;;;;;11.13;5.60;;;28.00;97.80;;;;;;5073749;28;20232;-75
2021/09/03 11:34:51;;;;;;;9.60;5.70;;;27.90;98.70;;;;;;5073686;28;20201;-76
2021/09/03 11:37:19;;;;;;;7.05;5.88;;;27.80;98.00;;;;;;5075778;28;20215;-76
2021/09/03 11:39:47;;;;;;;7.28;5.57;;;27.70;98.80;;;;;;5075930;28;20207;-76
2021/09/03 11:42:25;;;;;;;7.35;6.20;;;27.50;98.50;;;;;;5068138;28;20200;-76
2021/09/03 11:44:56;;;;;;;8.70;5.75;;;27.30;99.50;;;;;;5068942;28;20255;-76
2021/09/03 11:47:31;;;;;;;8.05;5.75;;;27.10;99.70;;;;;;5077613;28;20201;-76
2021/09/03 11:49:59;;;;;;;9.75;6.00;;;27.10;99.90;;;;;;5066989;28;20211;-76
2021/09/03 11:52:28;;;;;;;11.38;6.13;;;27.00;99.90;;;;;;5067467;28;20221;-76
2021/09/03 11:54:55;;;;;;;8.82;5.90;;;27.00;99.10;;;;;;5075120;28;20211;-76
2021/09/03 11:57:23;;;;;;;9.38;6.25;;;27.10;99.90;;;;;;5075986;28;20204;-76
2021/09/03 11:59:59;;;;;;;12.82;6.15;;;27.10;99.90;;;;;;5068591;28;20199;-76
2021/09/03 12:02:29;;;;;;;15.02;5.95;;;27.10;99.90;;;;;;5069947;28;20198;-76
2021/09/03 12:04:58;;;;;;;7.60;6.15;;;27.00;99.90;;;;;;5051908;28;20264;-76
2021/09/03 12:10:07;;;;;;;13.32;6.75;;;26.90;99.20;;;;;;5054858;28;20575;-76
2021/09/03 12:12:35;;;;;;;9.02;5.75;;;26.90;99.90;;;;;;5049380;28;20234;-76
2021/09/03 12:15:04;;;;;;;9.00;6.38;;;26.80;99.90;;;;;;5053839;28;20252;-76
2021/09/03 12:17:41;;;;;;;7.28;6.10;;;26.70;99.90;;;;;;5053767;28;20197;-76
2021/09/03 12:20:13;;;;;;;7.80;5.53;;;26.60;99.90;;;;;;5054491;28;20293;-76
2021/09/03 12:22:51;;;;;;;8.95;5.68;;;26.50;99.90;;;;;;5049842;28;20222;-76
2021/09/03 12:25:18;;;;;;;8.45;6.50;;;26.60;99.90;;;;;;5051130;28;20226;-76
2021/09/03 12:28:05;;;;;;;12.93;6.15;;;26.60;99.90;;;;;;5045589;28;20220;-76
2021/09/03 12:30:33;;;;;;;7.38;5.80;;;26.50;99.90;;;;;;5047310;28;20234;-76
2021/09/03 12:33:36;;;;;;;9.95;6.13;;;26.40;99.90;;;;;;5054072;28;20238;-76
2021/09/03 12:36:08;;;;;;;10.45;6.28;;;26.40;99.90;;;;;;5047788;28;20208;-75
2021/09/03 12:38:39;;;;;;;9.07;6.45;;;26.40;99.90;;;;;;5046663;28;20229;-75
2021/09/03 12:41:09;;;;;;;7.72;5.53;;;26.40;99.90;;;;;;5052855;28;20207;-75
2021/09/03 12:43:37;;;;;;;10.82;7.25;;;26.30;99.90;;;;;;5047276;28;20221;-75
2021/09/03 12:46:13;;;;;;;8.52;6.50;;;26.30;99.90;;;;;;5047697;28;20660;-76
2021/09/03 12:48:42;;;;;;;16.75;5.68;;;26.30;99.90;;;;;;5048056;28;20281;-75
2021/09/03 12:51:18;;;;;;;11.10;6.57;;;26.30;99.90;;;;;;5047331;28;20219;-75